ARCT2: Red River, ARthur City

Data processed at Thu Jan 04 2018 23:29


All information presented herein is the property of the government of the United States of America and may be revised or deleted at any time without prior notice.
Dissemination of this information without the expressed written consent of the Public Affairs Office, Tulsa District U.S. Army Corps of Engineers is strictly prohibited.
These data are gathered electronically and, as presented, have not undergone any form of quality control. These data are not guaranteed to be valid or correct.
Go to home page.
Go to station list.

Upstream stations:

Downstream station:
Previous Day
Next Day
Current Day
    
SHEF ID:       ARCT2     Red River at Arthur City, TX
STATION TYPE:  

               PRECIP     STAGE  STAGE(2)  RIV-FLOW  BAT-LOAD
                   in        ft        ft       cfs      volt
              Ccp-Rev   Ccp-Rev   Ccp-Rev   Ccp-Rev   Ccp-Rev
(US/Central)
01/02 00:00      0.00      6.75      6.81      3913     12.49
01/02 01:00      0.00      6.63      6.71      3742     12.49
01/02 02:00      0.00      6.53      6.62      3603     12.49
01/02 03:00      0.00      6.43      6.53      3465     12.41
01/02 04:00      0.00      6.33      6.43      3326     12.41
01/02 05:00      0.00      6.23      6.33      3191     12.41
01/02 06:00      0.00      6.13      6.23      3059     12.41
01/02 07:00      0.00      6.05      6.12      2955     12.33
01/02 08:00      0.00      5.95      6.03      2829     12.33
01/02 09:00      0.00      5.88      5.88      2742     12.73
01/02 10:00      0.00      5.81      5.75      2656     13.44
01/02 11:00      0.00      5.75      5.81      2583     13.68
01/02 12:00      0.00      5.71      5.79      2535     13.68
01/02 13:00      0.00      5.68      5.76      2499     13.60
01/02 14:00      0.00      5.68      5.76      2499     13.53
01/02 15:00      0.00      5.72      5.80      2547     13.44
01/02 16:00      0.00      5.78      5.86      2619     13.37
01/02 17:00      0.00      5.87      5.95      2730     13.29
01/02 18:00      0.00      5.97      6.05      2854     12.81
01/02 19:00      0.00      6.10      6.17      3020     12.57
01/02 20:00      0.00      6.21      6.28      3164     12.57
01/02 21:00      0.00      6.34      6.43      3340     12.57
01/02 22:00      0.00      6.47      6.56      3521     12.49
01/02 23:00      0.00      6.60      6.68      3700     12.49